createdAt,value
2019-04-26T00:00:48.283Z,92.00
2019-04-26T00:03:20.125Z,92.10
2019-04-26T00:05:50.161Z,92.40
2019-04-26T00:08:20.104Z,92.60
2019-04-26T00:11:03.871Z,92.80
2019-04-26T00:13:52.004Z,92.90
2019-04-26T00:16:29.304Z,93.10
2019-04-26T00:18:59.468Z,93.10
2019-04-26T00:21:29.618Z,93.10
2019-04-26T00:24:00.396Z,93.30
2019-04-26T00:26:31.284Z,93.60
2019-04-26T00:29:02.340Z,93.60
2019-04-26T00:31:32.368Z,93.90
2019-04-26T00:34:03.423Z,93.70
2019-04-26T00:36:33.407Z,94.00
2019-04-26T00:39:04.748Z,94.10
2019-04-26T00:41:35.708Z,94.00
2019-04-26T00:44:05.712Z,94.50
2019-04-26T00:46:37.571Z,94.30
2019-04-26T00:49:10.272Z,94.00
2019-04-26T00:51:41.025Z,93.50
2019-04-26T00:54:11.624Z,94.00
2019-04-26T00:56:42.091Z,93.70
2019-04-26T00:59:12.341Z,93.60
2019-04-26T01:01:44.899Z,93.50
2019-04-26T01:04:15.904Z,93.40
2019-04-26T01:06:49.149Z,93.50
2019-04-26T01:09:19.495Z,93.30
2019-04-26T01:11:49.475Z,93.30
2019-04-26T01:14:19.955Z,93.30
2019-04-26T01:16:50.016Z,93.20
2019-04-26T01:19:22.453Z,93.30
2019-04-26T01:21:58.326Z,93.20
2019-04-26T01:24:31.389Z,93.10
2019-04-26T01:27:04.686Z,93.00
2019-04-26T01:29:36.785Z,93.30
2019-04-26T01:32:09.867Z,93.40
2019-04-26T01:34:42.054Z,93.30
2019-04-26T01:37:12.284Z,93.40
2019-04-26T01:39:48.029Z,93.60
2019-04-26T01:42:22.432Z,93.60
2019-04-26T01:45:01.262Z,93.50
2019-04-26T01:47:32.708Z,93.70
2019-04-26T01:50:02.915Z,94.00
2019-04-26T01:52:32.988Z,93.60
2019-04-26T01:55:03.819Z,93.70
2019-04-26T01:57:34.216Z,93.60
2019-04-26T02:00:10.312Z,94.00
2019-04-26T02:02:42.066Z,94.20
2019-04-26T02:05:13.999Z,94.10
2019-04-26T02:07:44.032Z,94.40
2019-04-26T02:10:17.131Z,94.30
2019-04-26T02:12:48.921Z,94.10
2019-04-26T02:15:23.945Z,94.20
2019-04-26T02:17:56.841Z,94.30
2019-04-26T02:20:52.723Z,94.20
2019-04-26T02:23:34.361Z,94.70
2019-04-26T02:26:22.412Z,94.60
2019-04-26T02:28:52.358Z,94.70
2019-04-26T02:31:22.354Z,94.90
2019-04-26T02:33:52.842Z,94.80
2019-04-26T02:36:23.157Z,94.70
2019-04-26T02:38:55.847Z,94.80
2019-04-26T02:41:28.106Z,95.00
2019-04-26T02:44:01.239Z,95.10
2019-04-26T02:46:37.713Z,95.00
2019-04-26T02:49:22.647Z,95.30
2019-04-26T02:51:55.699Z,95.10
2019-04-26T02:54:46.945Z,95.10
2019-04-26T02:57:26.013Z,94.80
2019-04-26T02:59:59.116Z,94.90
2019-04-26T03:02:32.268Z,95.00
2019-04-26T03:05:03.871Z,95.00
2019-04-26T03:07:39.855Z,95.20
2019-04-26T03:10:10.442Z,95.40
2019-04-26T03:12:44.240Z,95.50
2019-04-26T03:15:24.711Z,95.60
2019-04-26T03:18:21.316Z,95.50
2019-04-26T03:20:54.914Z,95.50
2019-04-26T03:23:41.566Z,95.60
2019-04-26T03:26:20.732Z,95.50
2019-04-26T03:28:56.790Z,95.70
2019-04-26T03:31:54.467Z,95.80
2019-04-26T03:34:28.244Z,95.90
2019-04-26T03:37:26.732Z,95.90
2019-04-26T03:40:12.707Z,95.70
2019-04-26T03:43:02.251Z,95.80
2019-04-26T03:45:42.577Z,95.80
2019-04-26T03:48:48.928Z,95.80
2019-04-26T03:51:39.691Z,95.80
2019-04-26T03:54:19.210Z,96.10
2019-04-26T03:56:53.851Z,96.30
2019-04-26T03:59:31.244Z,96.60
2019-04-26T04:02:21.445Z,96.60
2019-04-26T04:05:01.939Z,96.70
2019-04-26T04:07:39.847Z,97.40
2019-04-26T04:10:15.938Z,97.60
2019-04-26T04:12:58.073Z,97.20
2019-04-26T04:15:34.293Z,97.40
2019-04-26T04:18:10.040Z,97.80
2019-04-26T04:21:18.648Z,98.60
2019-04-26T04:23:51.727Z,98.60
2019-04-26T04:26:27.275Z,98.30
2019-04-26T04:29:18.256Z,97.60
2019-04-26T04:31:56.990Z,97.80
2019-04-26T04:34:30.129Z,97.90
2019-04-26T04:37:03.497Z,97.80
2019-04-26T04:39:49.878Z,97.80
2019-04-26T04:42:43.440Z,97.80
2019-04-26T04:45:36.091Z,98.10
2019-04-26T04:48:37.120Z,97.80
2019-04-26T04:51:28.264Z,98.30
2019-04-26T04:54:18.116Z,98.20
2019-04-26T04:56:57.371Z,98.10
2019-04-26T04:59:32.923Z,97.90
2019-04-26T05:02:23.545Z,98.00
2019-04-26T05:05:14.851Z,98.20
2019-04-26T05:08:07.112Z,97.70
2019-04-26T05:10:46.179Z,97.60
2019-04-26T05:13:22.109Z,97.60
2019-04-26T05:16:17.454Z,97.60
2019-04-26T05:19:29.216Z,97.50
2019-04-26T05:22:08.046Z,97.60
2019-04-26T05:24:41.133Z,97.60
2019-04-26T05:27:34.819Z,97.80
2019-04-26T05:30:15.459Z,97.70
2019-04-26T05:32:54.726Z,97.50
2019-04-26T05:35:29.513Z,97.60
2019-04-26T05:38:20.617Z,97.70
2019-04-26T05:41:18.591Z,97.50
2019-04-26T05:44:14.150Z,97.50
2019-04-26T05:47:03.834Z,97.40
2019-04-26T05:50:16.006Z,97.00
2019-04-26T05:53:13.337Z,96.90
2019-04-26T05:56:32.277Z,96.60
2019-04-26T05:59:36.782Z,96.70
2019-04-26T06:02:35.679Z,96.40
2019-04-26T06:05:28.386Z,96.20
2019-04-26T06:08:30.625Z,96.10
2019-04-26T06:10:58.435Z,96.00
2019-04-26T06:13:45.090Z,95.70
2019-04-26T06:16:34.302Z,95.30
2019-04-26T06:19:17.894Z,94.90
2019-04-26T06:22:02.470Z,94.80
2019-04-26T06:24:35.492Z,94.50
2019-04-26T06:27:34.531Z,94.20
2019-04-26T06:30:10.158Z,94.60
2019-04-26T06:33:00.271Z,94.20
2019-04-26T06:35:25.591Z,93.80
2019-04-26T06:38:08.927Z,93.80
2019-04-26T06:40:54.597Z,92.90
2019-04-26T06:43:30.278Z,92.60
2019-04-26T06:46:22.881Z,92.70
2019-04-26T06:49:24.097Z,91.80
2019-04-26T06:52:00.422Z,91.70
2019-04-26T06:54:48.810Z,91.60
2019-04-26T06:57:55.185Z,90.90
2019-04-26T07:00:29.520Z,90.70
2019-04-26T07:03:08.486Z,90.80
2019-04-26T07:05:47.290Z,90.30
2019-04-26T07:08:22.862Z,89.80
2019-04-26T07:11:19.003Z,89.50
2019-04-26T07:14:10.004Z,85.60
2019-04-26T07:16:43.156Z,83.80
2019-04-26T07:19:40.713Z,82.50
2019-04-26T07:22:21.130Z,82.10
2019-04-26T07:25:18.511Z,83.40
2019-04-26T07:28:03.837Z,82.10
2019-04-26T07:30:35.083Z,82.50
2019-04-26T07:33:26.549Z,82.70
2019-04-26T07:36:20.720Z,84.00
2019-04-26T07:39:19.408Z,83.70
2019-04-26T07:42:25.233Z,82.70
2019-04-26T07:45:17.822Z,83.40
2019-04-26T07:48:17.366Z,82.90
2019-04-26T07:51:06.399Z,81.20
2019-04-26T07:54:00.213Z,77.20
2019-04-26T07:56:50.718Z,76.80
2019-04-26T07:59:47.748Z,78.70
2019-04-26T08:02:39.536Z,77.80
2019-04-26T08:05:38.110Z,76.40
2019-04-26T08:08:10.814Z,74.50
2019-04-26T08:10:44.482Z,75.70
2019-04-26T08:13:17.020Z,74.10
2019-04-26T08:16:04.880Z,74.00
2019-04-26T08:18:39.862Z,74.10
2019-04-26T08:21:20.483Z,75.90
2019-04-26T08:24:01.016Z,74.30
2019-04-26T08:26:33.798Z,73.30
2019-04-26T08:29:07.030Z,73.30
2019-04-26T08:31:40.065Z,76.10
2019-04-26T08:34:14.506Z,75.50
2019-04-26T08:36:50.702Z,72.90
2019-04-26T08:39:32.370Z,74.50
2019-04-26T08:42:01.663Z,73.70
2019-04-26T08:44:36.953Z,72.90
2019-04-26T08:47:16.414Z,74.10
2019-04-26T08:49:52.559Z,73.00
2019-04-26T08:52:25.896Z,72.10
2019-04-26T08:54:58.346Z,72.30
2019-04-26T08:57:31.375Z,72.20
2019-04-26T09:00:04.471Z,73.90
2019-04-26T09:02:42.850Z,74.20
2019-04-26T09:05:23.193Z,75.70
2019-04-26T09:07:57.594Z,75.60
2019-04-26T09:10:31.378Z,73.60
2019-04-26T09:13:03.925Z,74.30
2019-04-26T09:15:57.060Z,76.10
2019-04-26T09:18:27.901Z,74.20
2019-04-26T09:20:57.873Z,73.60
2019-04-26T09:23:39.878Z,73.60
2019-04-26T09:26:08.544Z,73.60
2019-04-26T09:28:56.509Z,74.20
2019-04-26T09:31:28.565Z,75.20
2019-04-26T09:34:06.388Z,72.40
2019-04-26T09:36:34.975Z,74.50
2019-04-26T09:39:09.846Z,73.40
2019-04-26T09:41:40.136Z,74.20
2019-04-26T09:44:27.811Z,75.30
2019-04-26T09:47:15.705Z,73.90
2019-04-26T09:50:03.400Z,72.70
2019-04-26T09:52:50.179Z,73.80
2019-04-26T09:55:20.143Z,73.30
2019-04-26T09:57:53.525Z,72.80
2019-04-26T10:00:23.868Z,74.90
2019-04-26T10:02:53.886Z,74.60
2019-04-26T10:05:23.904Z,74.50
2019-04-26T10:07:53.809Z,73.00
2019-04-26T10:10:25.407Z,72.10
2019-04-26T10:12:59.680Z,70.50
2019-04-26T10:15:49.557Z,67.50
2019-04-26T10:18:24.360Z,69.70
2019-04-26T10:20:52.730Z,69.60
2019-04-26T10:23:22.676Z,70.70
2019-04-26T10:25:53.642Z,70.60
2019-04-26T10:28:24.858Z,70.60
2019-04-26T10:30:54.899Z,70.50
2019-04-26T10:33:24.840Z,70.20
2019-04-26T10:35:56.636Z,70.80
2019-04-26T10:38:26.387Z,71.70
2019-04-26T10:40:56.363Z,69.90
2019-04-26T10:43:29.261Z,70.60
2019-04-26T10:45:57.980Z,71.30
2019-04-26T10:48:27.923Z,72.00
2019-04-26T10:50:57.963Z,72.40
2019-04-26T10:53:35.866Z,73.80
2019-04-26T10:56:08.015Z,72.50
2019-04-26T10:58:39.666Z,72.10
2019-04-26T11:01:11.553Z,71.90
2019-04-26T11:03:41.503Z,71.50
2019-04-26T11:06:11.471Z,73.20
2019-04-26T11:08:41.424Z,72.20
2019-04-26T11:11:11.768Z,71.90
2019-04-26T11:13:41.721Z,71.60
2019-04-26T11:16:12.701Z,73.50
2019-04-26T11:18:42.819Z,69.70
2019-04-26T11:21:16.409Z,70.20
2019-04-26T11:23:45.465Z,70.90
2019-04-26T11:26:16.672Z,70.20
2019-04-26T11:28:46.735Z,71.40
2019-04-26T11:31:16.716Z,71.70
2019-04-26T11:33:49.591Z,73.10
2019-04-26T11:36:18.248Z,72.40
2019-04-26T11:38:48.203Z,71.90
2019-04-26T11:41:18.151Z,72.90
2019-04-26T11:43:49.050Z,72.60
2019-04-26T11:46:21.807Z,70.90
2019-04-26T11:48:58.894Z,69.50
2019-04-26T11:51:23.619Z,69.10
2019-04-26T11:53:54.438Z,71.20
2019-04-26T11:56:24.397Z,71.20
2019-04-26T11:58:56.813Z,70.50
2019-04-26T12:01:27.759Z,70.00
2019-04-26T12:04:11.773Z,69.70
2019-04-26T12:07:01.353Z,68.80
2019-04-26T12:09:33.006Z,69.40
2019-04-26T12:12:04.929Z,68.70
2019-04-26T12:14:35.562Z,68.80
2019-04-26T12:17:05.516Z,69.10
2019-04-26T12:19:35.451Z,69.00
2019-04-26T12:22:08.205Z,68.90
2019-04-26T12:24:37.213Z,69.00
2019-04-26T12:27:10.041Z,70.30
2019-04-26T12:29:38.931Z,71.30
2019-04-26T12:32:08.878Z,68.50
2019-04-26T12:34:38.830Z,69.00
2019-04-26T12:37:12.506Z,70.40
2019-04-26T12:39:40.415Z,69.50
2019-04-26T12:42:12.267Z,73.80
2019-04-26T12:44:43.796Z,69.80
2019-04-26T12:47:16.398Z,70.80
2019-04-26T12:49:46.353Z,69.70
2019-04-26T12:52:17.517Z,67.60
2019-04-26T12:54:47.946Z,69.10
2019-04-26T12:57:17.923Z,71.70
2019-04-26T12:59:47.960Z,69.50
2019-04-26T13:02:20.779Z,68.00
2019-04-26T13:04:49.530Z,68.90
2019-04-26T13:07:23.737Z,69.10
2019-04-26T13:09:57.166Z,67.80
2019-04-26T13:12:30.821Z,67.20
2019-04-26T13:15:22.274Z,66.80
2019-04-26T13:17:53.691Z,68.00
2019-04-26T13:20:24.404Z,66.20
2019-04-26T13:22:55.927Z,66.40
2019-04-26T13:25:26.714Z,65.10
2019-04-26T13:27:57.544Z,64.10
2019-04-26T13:30:32.997Z,63.20
2019-04-26T13:32:59.062Z,63.40
2019-04-26T13:35:29.014Z,63.40
2019-04-26T13:37:58.966Z,64.20
2019-04-26T13:40:29.509Z,63.40
2019-04-26T13:42:59.531Z,64.30
2019-04-26T13:45:31.187Z,65.00
2019-04-26T13:48:19.278Z,64.00
2019-04-26T13:51:01.289Z,64.10
2019-04-26T13:53:31.555Z,64.10
2019-04-26T13:56:01.918Z,62.40
2019-04-26T13:58:32.701Z,60.90
2019-04-26T14:01:04.087Z,61.00
2019-04-26T14:03:34.035Z,61.60
2019-04-26T14:06:03.986Z,60.20
2019-04-26T14:08:33.941Z,60.50
2019-04-26T14:11:04.453Z,60.30
2019-04-26T14:13:34.409Z,59.80
2019-04-26T14:16:04.704Z,59.70
2019-04-26T14:18:38.861Z,60.30
2019-04-26T14:21:06.218Z,59.10
2019-04-26T14:23:38.872Z,60.30
2019-04-26T14:26:15.934Z,61.60
2019-04-26T14:28:45.890Z,61.60
2019-04-26T14:31:16.340Z,61.90
2019-04-26T14:33:47.402Z,60.60
2019-04-26T14:36:18.398Z,60.20
2019-04-26T14:38:48.608Z,59.90
2019-04-26T14:41:22.492Z,60.20
2019-04-26T14:43:52.491Z,59.30
2019-04-26T14:46:23.023Z,57.90
2019-04-26T14:49:01.384Z,58.00
2019-04-26T14:51:24.744Z,58.70
2019-04-26T14:53:54.691Z,59.00
2019-04-26T14:56:29.140Z,59.20
2019-04-26T14:58:56.223Z,59.90
2019-04-26T15:01:44.326Z,59.70
2019-04-26T15:04:33.764Z,59.20
2019-04-26T15:07:05.643Z,59.30
2019-04-26T15:09:36.637Z,59.80
2019-04-26T15:12:07.829Z,59.50
2019-04-26T15:14:38.492Z,60.20
2019-04-26T15:17:08.583Z,59.60
2019-04-26T15:19:40.289Z,61.50
2019-04-26T15:22:12.089Z,61.20
2019-04-26T15:24:42.195Z,61.10
2019-04-26T15:27:12.227Z,60.60
2019-04-26T15:29:42.408Z,60.90
2019-04-26T15:32:15.387Z,60.20
2019-04-26T15:34:45.330Z,61.00
2019-04-26T15:37:16.211Z,62.80
2019-04-26T15:39:56.844Z,62.80
2019-04-26T15:42:29.271Z,62.90
2019-04-26T15:45:06.395Z,62.80
2019-04-26T15:47:50.212Z,62.30
2019-04-26T15:50:24.756Z,62.30
2019-04-26T15:52:54.698Z,62.30
2019-04-26T15:55:24.710Z,62.60
2019-04-26T15:57:54.659Z,63.20
2019-04-26T16:00:28.216Z,61.60
2019-04-26T16:02:58.629Z,62.50
2019-04-26T16:05:29.829Z,62.70
2019-04-26T16:08:01.859Z,62.80
2019-04-26T16:10:37.090Z,64.40
2019-04-26T16:13:16.097Z,65.20
2019-04-26T16:15:34.686Z,67.10
2019-04-26T16:18:04.806Z,69.00
2019-04-26T16:20:38.033Z,69.70
2019-04-26T16:23:07.409Z,70.30
2019-04-26T16:25:39.321Z,71.40
2019-04-26T16:28:17.011Z,71.00
2019-04-26T16:30:53.090Z,71.60
2019-04-26T16:33:28.529Z,73.20
2019-04-26T16:35:57.393Z,74.00
2019-04-26T16:38:29.582Z,75.40
2019-04-26T16:40:59.537Z,75.70
2019-04-26T16:43:37.647Z,77.10
2019-04-26T16:46:02.296Z,77.60
2019-04-26T16:48:32.547Z,78.80
2019-04-26T16:51:08.554Z,79.50
2019-04-26T16:56:06.651Z,81.20
2019-04-26T16:58:42.265Z,81.80
2019-04-26T17:00:46.555Z,80.60
2019-04-26T17:01:10.261Z,83.60
2019-04-26T17:03:45.241Z,83.60
2019-04-26T17:06:14.390Z,84.00
2019-04-26T17:08:50.063Z,85.10
2019-04-26T17:11:15.566Z,85.90
2019-04-26T17:13:50.588Z,86.70
2019-04-26T17:16:17.088Z,87.30
2019-04-26T17:18:47.043Z,87.70
2019-04-26T17:21:22.335Z,88.80
2019-04-26T17:24:00.861Z,89.20
2019-04-26T17:26:36.462Z,90.00
2019-04-26T17:29:05.822Z,90.20
2019-04-26T17:31:35.779Z,90.30
2019-04-26T17:34:05.803Z,90.20
2019-04-26T17:36:35.782Z,90.30
2019-04-26T17:39:10.926Z,90.60
2019-04-26T17:41:45.112Z,90.90
2019-04-26T17:44:13.304Z,91.30
2019-04-26T17:46:43.487Z,91.30
2019-04-26T17:49:13.463Z,91.60
2019-04-26T17:51:44.444Z,91.90
2019-04-26T17:54:41.686Z,92.10
2019-04-26T17:56:46.151Z,92.40
2019-04-26T17:59:32.553Z,92.50
2019-04-26T18:01:55.490Z,92.70
2019-04-26T18:04:31.440Z,93.00
2019-04-26T18:06:57.889Z,93.40
2019-04-26T18:09:40.343Z,93.90
2019-04-26T18:11:55.309Z,94.40
2019-04-26T18:14:30.316Z,94.70
2019-04-26T18:17:01.501Z,95.80
2019-04-26T18:19:36.086Z,96.70
2019-04-26T18:22:07.836Z,97.70
2019-04-26T18:24:37.865Z,98.20
2019-04-26T18:27:07.942Z,99.60
2019-04-26T18:29:37.922Z,99.40
2019-04-26T18:32:07.890Z,99.90
2019-04-26T18:34:40.632Z,99.90
2019-04-26T18:37:09.911Z,99.90
2019-04-26T18:39:39.924Z,99.90
2019-04-26T18:42:09.878Z,99.90
2019-04-26T18:44:47.355Z,99.90
2019-04-26T18:47:20.593Z,99.90
2019-04-26T18:49:47.373Z,99.90
2019-04-26T18:52:19.396Z,99.90
2019-04-26T18:54:53.092Z,99.90
2019-04-26T18:57:23.833Z,99.90
2019-04-26T18:59:53.936Z,99.90
2019-04-26T19:02:25.358Z,99.90
2019-04-26T19:04:55.335Z,99.90
2019-04-26T19:07:32.106Z,99.90
2019-04-26T19:10:01.974Z,99.90
2019-04-26T19:12:28.677Z,99.90
2019-04-26T19:15:16.890Z,99.90
2019-04-26T19:17:54.776Z,99.90
2019-04-26T19:20:26.462Z,99.90
2019-04-26T19:22:58.304Z,99.90
2019-04-26T19:25:29.913Z,99.90
2019-04-26T19:28:04.459Z,99.90
2019-04-26T19:30:31.784Z,99.90
2019-04-26T19:33:02.139Z,99.90
2019-04-26T19:35:33.698Z,99.90
2019-04-26T19:38:07.441Z,99.90
2019-04-26T19:40:35.553Z,99.90
2019-04-26T19:43:09.087Z,99.90
2019-04-26T19:45:46.130Z,99.90
2019-04-26T19:48:31.370Z,99.90
2019-04-26T19:51:11.745Z,99.90
2019-04-26T19:53:51.674Z,99.90
2019-04-26T19:56:27.855Z,99.90
2019-04-26T19:58:58.730Z,99.90
2019-04-26T20:01:28.986Z,99.90
2019-04-26T20:03:58.950Z,99.90
2019-04-26T20:06:28.916Z,99.90
2019-04-26T20:08:59.848Z,99.90
2019-04-26T20:11:31.590Z,99.90
2019-04-26T20:14:03.416Z,99.90
2019-04-26T20:16:36.387Z,99.90
2019-04-26T20:19:08.085Z,99.90
2019-04-26T20:21:37.827Z,99.90
2019-04-26T20:24:07.778Z,99.90
2019-04-26T20:26:41.916Z,99.90
2019-04-26T20:29:11.455Z,99.90
2019-04-26T20:31:47.606Z,99.90
2019-04-26T20:34:18.404Z,99.90
2019-04-26T20:36:47.923Z,99.90
2019-04-26T20:39:20.866Z,99.90
2019-04-26T20:42:01.248Z,99.90
2019-04-26T20:44:28.365Z,99.90
2019-04-26T20:46:54.735Z,99.90
2019-04-26T20:49:24.672Z,99.90
2019-04-26T20:51:54.718Z,99.90
2019-04-26T20:54:24.678Z,99.90
2019-04-26T20:56:55.622Z,99.90
2019-04-26T20:59:26.990Z,99.90
2019-04-26T21:02:05.356Z,99.90
2019-04-26T21:04:38.125Z,99.90
2019-04-26T21:07:02.272Z,99.90
2019-04-26T21:09:36.164Z,99.90
2019-04-26T21:12:07.936Z,99.90
2019-04-26T21:14:37.749Z,99.90
2019-04-26T21:17:07.552Z,99.90
2019-04-26T21:19:37.507Z,99.90
2019-04-26T21:22:07.735Z,99.90
2019-04-26T21:24:39.334Z,99.90
2019-04-26T21:27:13.975Z,99.90
2019-04-26T21:29:52.506Z,99.90
2019-04-26T21:32:26.201Z,99.90
2019-04-26T21:34:57.413Z,99.90
2019-04-26T21:37:37.971Z,99.90
2019-04-26T21:40:16.153Z,99.90
2019-04-26T21:42:45.231Z,99.90
2019-04-26T21:45:16.590Z,99.90
2019-04-26T21:47:46.642Z,99.90
2019-04-26T21:50:16.592Z,99.90
2019-04-26T21:52:46.597Z,99.90
2019-04-26T21:55:16.780Z,99.90
2019-04-26T21:57:46.838Z,99.90
2019-04-26T22:00:18.967Z,99.90
2019-04-26T22:02:50.549Z,99.90
2019-04-26T22:05:20.506Z,99.90
2019-04-26T22:07:50.514Z,99.90
2019-04-26T22:10:23.485Z,99.90
2019-04-26T22:12:53.937Z,99.90
2019-04-26T22:15:29.405Z,99.90
2019-04-26T22:17:58.878Z,99.90
2019-04-26T22:20:30.474Z,99.90
2019-04-26T22:23:11.648Z,99.90
2019-04-26T22:25:42.319Z,99.90
2019-04-26T22:28:13.076Z,99.90
2019-04-26T22:30:43.175Z,99.90
2019-04-26T22:33:13.263Z,99.90
2019-04-26T22:35:43.276Z,99.90
2019-04-26T22:38:17.507Z,99.90
2019-04-26T22:40:48.591Z,99.90
2019-04-26T22:43:22.937Z,99.90
2019-04-26T22:45:58.435Z,99.90
2019-04-26T22:48:33.929Z,99.90
2019-04-26T22:51:04.740Z,99.90
2019-04-26T22:53:34.891Z,99.90
2019-04-26T22:56:05.075Z,99.90
2019-04-26T22:58:35.139Z,99.90
2019-04-26T23:01:06.258Z,99.90
2019-04-26T23:03:40.500Z,99.90
2019-04-26T23:06:11.692Z,99.90
2019-04-26T23:08:39.934Z,99.90
2019-04-26T23:11:10.741Z,99.90
2019-04-26T23:13:48.226Z,99.90
2019-04-26T23:16:19.819Z,99.90
2019-04-26T23:19:00.230Z,99.90
2019-04-26T23:21:33.952Z,99.90
2019-04-26T23:24:03.875Z,99.90
2019-04-26T23:26:37.536Z,99.90
2019-04-26T23:29:08.614Z,99.90
2019-04-26T23:31:37.538Z,99.90
2019-04-26T23:34:07.564Z,99.90
2019-04-26T23:36:37.519Z,99.90
2019-04-26T23:39:11.819Z,99.90
2019-04-26T23:41:41.606Z,99.90
2019-04-26T23:44:13.052Z,99.90
2019-04-26T23:46:43.955Z,99.90
2019-04-26T23:49:14.492Z,99.90
2019-04-26T23:51:45.875Z,99.90
2019-04-26T23:54:16.096Z,99.90
2019-04-26T23:56:46.067Z,99.90
2019-04-26T23:59:20.722Z,99.90
